createdAt,value
2019-04-01T00:00:35.731Z,5.35
2019-04-01T00:03:08.026Z,5.45
2019-04-01T00:05:39.588Z,5.53
2019-04-01T00:08:10.503Z,5.58
2019-04-01T00:10:41.949Z,5.62
2019-04-01T00:13:14.542Z,5.62
2019-04-01T00:15:45.471Z,5.56
2019-04-01T00:18:16.436Z,5.60
2019-04-01T00:20:47.796Z,5.52
2019-04-01T00:23:18.969Z,5.47
2019-04-01T00:25:49.916Z,5.27
2019-04-01T00:28:20.798Z,5.24
2019-04-01T00:30:52.105Z,5.27
2019-04-01T00:33:23.477Z,5.34
2019-04-01T00:35:54.464Z,5.43
2019-04-01T00:38:25.878Z,5.54
2019-04-01T00:40:56.877Z,5.50
2019-04-01T00:44:01.947Z,5.66
2019-04-01T00:46:33.861Z,5.67
2019-04-01T00:49:05.009Z,5.84
2019-04-01T00:51:36.076Z,5.64
2019-04-01T00:54:06.788Z,5.82
2019-04-01T00:56:37.993Z,5.93
2019-04-01T00:59:09.273Z,5.93
2019-04-01T01:01:40.298Z,5.91
2019-04-01T01:04:11.713Z,5.87
2019-04-01T01:06:42.873Z,5.84
2019-04-01T01:09:14.150Z,5.79
2019-04-01T01:11:45.411Z,5.65
2019-04-01T01:14:16.277Z,5.56
2019-04-01T01:16:47.167Z,5.47
2019-04-01T01:19:18.588Z,5.47
2019-04-01T01:21:49.904Z,5.39
2019-04-01T01:24:21.312Z,5.31
2019-04-01T01:26:52.307Z,5.34
2019-04-01T01:29:23.352Z,5.22
2019-04-01T01:31:54.590Z,5.39
2019-04-01T01:34:25.465Z,5.39
2019-04-01T01:36:56.743Z,5.50
2019-04-01T01:39:27.828Z,5.42
2019-04-01T01:41:59.077Z,5.55
2019-04-01T01:44:30.489Z,5.52
2019-04-01T01:47:01.631Z,5.42
2019-04-01T01:49:32.463Z,5.26
2019-04-01T01:52:03.493Z,5.17
2019-04-01T01:54:34.873Z,5.13
2019-04-01T01:57:06.126Z,5.16
2019-04-01T01:59:37.355Z,5.10
2019-04-01T02:02:08.733Z,5.14
2019-04-01T02:04:39.986Z,5.21
2019-04-01T02:07:10.993Z,5.05
2019-04-01T02:09:42.012Z,4.96
2019-04-01T02:12:13.288Z,4.77
2019-04-01T02:14:44.555Z,4.64
2019-04-01T02:17:15.639Z,4.53
2019-04-01T02:19:46.276Z,4.46
2019-04-01T02:22:17.301Z,4.50
2019-04-01T02:24:48.334Z,4.52
2019-04-01T02:27:19.659Z,4.62
2019-04-01T02:29:50.848Z,4.66
2019-04-01T02:32:22.103Z,4.64
2019-04-01T02:34:53.419Z,4.69
2019-04-01T02:37:24.480Z,4.52
2019-04-01T02:39:55.382Z,4.46
2019-04-01T02:42:26.784Z,4.38
2019-04-01T02:44:57.807Z,4.33
2019-04-01T02:47:29.416Z,4.31
2019-04-01T02:50:01.929Z,4.24
2019-04-01T02:52:33.054Z,4.09
2019-04-01T02:55:06.552Z,3.94
2019-04-01T02:57:37.024Z,3.82
2019-04-01T03:00:08.487Z,3.72
2019-04-01T03:02:39.522Z,3.72
2019-04-01T03:05:10.669Z,3.57
2019-04-01T03:07:41.929Z,3.60
2019-04-01T03:10:13.078Z,3.63
2019-04-01T03:12:45.457Z,3.55
2019-04-01T03:15:16.362Z,3.70
2019-04-01T03:17:47.165Z,3.76
2019-04-01T03:20:18.525Z,3.81
2019-04-01T03:22:49.813Z,3.77
2019-04-01T03:25:21.080Z,3.80
2019-04-01T03:27:53.211Z,3.86
2019-04-01T03:30:24.661Z,3.98
2019-04-01T03:32:55.851Z,4.14
2019-04-01T03:35:26.485Z,4.23
2019-04-01T03:37:57.561Z,4.32
2019-04-01T03:40:28.558Z,4.43
2019-04-01T03:42:59.573Z,4.51
2019-04-01T03:45:30.666Z,4.55
2019-04-01T03:48:02.085Z,4.56
2019-04-01T03:50:33.191Z,4.59
2019-04-01T03:53:03.994Z,4.63
2019-04-01T03:55:35.497Z,4.58
2019-04-01T03:58:06.820Z,4.62
2019-04-01T04:00:38.457Z,4.60
2019-04-01T04:03:09.761Z,4.59
2019-04-01T04:05:41.006Z,4.54
2019-04-01T04:08:11.781Z,4.56
2019-04-01T04:10:42.816Z,4.56
2019-04-01T04:13:14.230Z,4.60
2019-04-01T04:15:45.287Z,4.70
2019-04-01T04:18:17.564Z,4.74
2019-04-01T04:20:48.622Z,4.79
2019-04-01T04:23:19.598Z,4.82
2019-04-01T04:25:51.415Z,4.88
2019-04-01T04:28:22.481Z,4.84
2019-04-01T04:30:53.508Z,4.80
2019-04-01T04:33:24.404Z,4.80
2019-04-01T04:35:55.544Z,4.78
2019-04-01T04:38:26.544Z,4.75
2019-04-01T04:40:57.625Z,4.82
2019-04-01T04:43:29.129Z,4.80
2019-04-01T04:46:00.359Z,4.94
2019-04-01T04:48:31.426Z,5.00
2019-04-01T04:51:02.381Z,5.12
2019-04-01T04:53:33.509Z,5.18
2019-04-01T04:56:04.683Z,5.20
2019-04-01T04:58:35.568Z,5.30
2019-04-01T05:01:06.492Z,5.36
2019-04-01T05:03:37.701Z,5.33
2019-04-01T05:06:09.064Z,5.44
2019-04-01T05:08:40.276Z,5.68
2019-04-01T05:11:11.018Z,6.03
2019-04-01T05:13:42.141Z,6.45
2019-04-01T05:16:13.399Z,6.99
2019-04-01T05:18:44.596Z,7.46
2019-04-01T05:21:16.400Z,8.07
2019-04-01T05:23:48.247Z,8.83
2019-04-01T05:26:20.357Z,9.64
2019-04-01T05:28:52.345Z,10.38
2019-04-01T05:31:23.819Z,11.34
2019-04-01T05:33:56.053Z,12.29
2019-04-01T05:36:27.619Z,13.18
2019-04-01T05:38:58.780Z,14.00
2019-04-01T05:41:29.879Z,13.52
2019-04-01T05:44:02.463Z,14.33
2019-04-01T05:46:33.701Z,14.69
2019-04-01T05:49:05.612Z,14.83
2019-04-01T05:51:37.139Z,14.65
2019-04-01T05:54:08.642Z,15.46
2019-04-01T05:56:39.690Z,15.96
2019-04-01T05:59:10.780Z,16.41
2019-04-01T06:01:44.199Z,16.62
2019-04-01T06:04:15.187Z,16.87
2019-04-01T06:06:48.842Z,16.97
2019-04-01T06:09:19.550Z,15.91
2019-04-01T06:11:50.484Z,15.20
2019-04-01T06:14:21.964Z,15.29
2019-04-01T06:16:53.480Z,14.82
2019-04-01T06:19:24.657Z,14.63
2019-04-01T06:21:55.760Z,15.15
2019-04-01T06:24:27.192Z,15.10
2019-04-01T06:26:58.411Z,15.63
2019-04-01T06:29:29.513Z,16.08
2019-04-01T06:32:22.103Z,16.30
2019-04-01T06:34:53.509Z,15.92
2019-04-01T06:37:24.652Z,16.48
2019-04-01T06:39:55.717Z,16.33
2019-04-01T06:42:26.704Z,16.56
2019-04-01T06:44:57.598Z,16.23
2019-04-01T06:47:28.512Z,16.52
2019-04-01T06:49:59.323Z,16.76
2019-04-01T06:52:30.375Z,16.66
2019-04-01T06:55:01.432Z,16.30
2019-04-01T07:11:57.638Z,17.40
2019-04-01T07:14:30.376Z,17.33
2019-04-01T07:17:03.887Z,17.24
2019-04-01T07:19:36.443Z,17.23
2019-04-01T07:22:09.343Z,17.32
2019-04-01T07:24:42.774Z,17.41
2019-04-01T07:27:15.798Z,17.62
2019-04-01T07:29:48.593Z,17.24
2019-04-01T07:32:21.117Z,17.56
2019-04-01T07:34:53.649Z,17.48
2019-04-01T07:37:26.165Z,17.60
2019-04-01T07:39:58.545Z,17.81
2019-04-01T07:42:31.318Z,18.00
2019-04-01T07:45:03.930Z,18.10
2019-04-01T07:47:36.745Z,18.14
2019-04-01T07:50:12.058Z,17.99
2019-04-01T07:52:43.072Z,18.50
2019-04-01T07:55:15.471Z,18.73
2019-04-01T07:57:48.432Z,18.85
2019-04-01T08:00:20.951Z,19.09
2019-04-01T08:02:54.384Z,19.01
2019-04-01T08:05:27.085Z,19.01
2019-04-01T08:08:00.126Z,19.38
2019-04-01T08:10:33.076Z,19.63
2019-04-01T08:13:05.758Z,19.89
2019-04-01T08:15:38.283Z,20.12
2019-04-01T08:18:11.324Z,20.05
2019-04-01T08:20:45.222Z,20.30
2019-04-01T08:23:20.789Z,20.26
2019-04-01T08:25:52.972Z,20.45
2019-04-01T08:28:26.016Z,20.31
2019-04-01T08:30:58.503Z,20.38
2019-04-01T08:33:31.142Z,20.02
2019-04-01T08:36:03.550Z,19.99
2019-04-01T08:38:36.191Z,20.55
2019-04-01T08:41:09.422Z,20.34
2019-04-01T08:43:40.716Z,20.15
2019-04-01T08:46:13.615Z,19.68
2019-04-01T08:48:46.217Z,19.91
2019-04-01T08:51:19.142Z,20.29
2019-04-01T08:53:52.031Z,20.55
2019-04-01T08:56:25.911Z,20.68
2019-04-01T08:58:58.745Z,20.72
2019-04-01T09:01:35.433Z,20.68
2019-04-01T09:04:05.759Z,21.12
2019-04-01T09:06:38.024Z,21.40
2019-04-01T09:09:10.495Z,21.56
2019-04-01T09:11:43.812Z,21.88
2019-04-01T09:14:16.927Z,21.94
2019-04-01T09:16:49.504Z,22.17
2019-04-01T09:19:22.001Z,22.06
2019-04-01T09:21:54.972Z,22.44
2019-04-01T09:24:27.520Z,22.58
2019-04-01T09:26:59.952Z,21.98
2019-04-01T09:29:32.437Z,21.62
2019-04-01T09:32:04.976Z,21.72
2019-04-01T09:34:37.500Z,22.13
2019-04-01T09:37:10.459Z,21.76
2019-04-01T09:39:41.890Z,22.33
2019-04-01T09:42:14.654Z,22.41
2019-04-01T09:44:47.216Z,22.24
2019-04-01T09:47:19.787Z,22.20
2019-04-01T09:49:52.853Z,21.77
2019-04-01T09:52:24.448Z,21.86
2019-04-01T09:54:56.994Z,22.06
2019-04-01T09:57:29.581Z,22.23
2019-04-01T10:00:02.579Z,22.12
2019-04-01T10:02:36.824Z,22.18
2019-04-01T10:05:10.633Z,22.52
2019-04-01T10:07:43.761Z,22.96
2019-04-01T10:10:15.202Z,22.92
2019-04-01T10:12:47.982Z,22.60
2019-04-01T10:15:21.945Z,22.41
2019-04-01T10:17:54.424Z,21.81
2019-04-01T10:20:27.218Z,21.89
2019-04-01T10:22:59.677Z,22.36
2019-04-01T10:25:32.570Z,22.73
2019-04-01T10:28:05.381Z,22.24
2019-04-01T10:30:37.898Z,22.68
2019-04-01T10:33:10.875Z,22.83
2019-04-01T10:35:43.985Z,22.76
2019-04-01T10:38:16.932Z,23.16
2019-04-01T10:40:49.731Z,23.38
2019-04-01T10:43:22.050Z,23.49
2019-04-01T10:45:54.695Z,22.93
2019-04-01T10:48:27.214Z,22.67
2019-04-01T10:50:59.951Z,23.06
2019-04-01T10:53:32.626Z,23.02
2019-04-01T10:56:05.214Z,22.57
2019-04-01T10:58:37.555Z,22.83
2019-04-01T11:01:10.636Z,23.22
2019-04-01T11:03:43.554Z,23.34
2019-04-01T11:06:14.953Z,23.46
2019-04-01T11:08:47.372Z,23.46
2019-04-01T11:11:19.876Z,23.59
2019-04-01T11:13:53.926Z,23.67
2019-04-01T11:16:27.245Z,23.99
2019-04-01T11:19:01.266Z,24.02
2019-04-01T11:21:34.220Z,23.96
2019-04-01T11:24:07.721Z,23.81
2019-04-01T11:26:40.795Z,24.31
2019-04-01T11:29:14.634Z,24.04
2019-04-01T11:31:47.246Z,24.44
2019-04-01T11:34:20.007Z,24.78
2019-04-01T11:36:52.658Z,24.90
2019-04-01T11:39:24.687Z,24.87
2019-04-01T11:41:57.242Z,25.21
2019-04-01T11:44:29.938Z,25.09
2019-04-01T11:47:02.922Z,24.99
2019-04-01T11:49:34.146Z,24.79
2019-04-01T11:52:06.810Z,24.57
2019-04-01T11:54:38.753Z,25.08
2019-04-01T11:57:11.572Z,25.20
2019-04-01T11:59:44.320Z,24.80
2019-04-01T12:02:17.186Z,25.44
2019-04-01T12:04:48.454Z,25.35
2019-04-01T12:07:21.353Z,25.85
2019-04-01T12:09:52.655Z,24.79
2019-04-01T12:12:25.550Z,25.00
2019-04-01T12:14:57.307Z,25.04
2019-04-01T12:17:29.704Z,25.18
2019-04-01T12:20:02.667Z,25.39
2019-04-01T12:22:35.613Z,25.97
2019-04-01T12:25:09.351Z,26.15
2019-04-01T12:27:42.443Z,26.34
2019-04-01T12:30:15.107Z,26.22
2019-04-01T12:32:47.781Z,26.51
2019-04-01T12:35:21.523Z,27.09
2019-04-01T12:37:55.125Z,27.11
2019-04-01T12:40:30.708Z,27.60
2019-04-01T12:43:03.491Z,27.78
2019-04-01T12:45:34.753Z,28.32
2019-04-01T12:48:07.439Z,28.17
2019-04-01T12:50:40.040Z,27.80
2019-04-01T12:53:12.664Z,29.24
2019-04-01T12:55:45.182Z,29.64
2019-04-01T12:58:18.101Z,29.45
2019-04-01T13:13:38.859Z,29.02
2019-04-01T13:16:10.428Z,28.75
2019-04-01T13:18:42.332Z,29.45
2019-04-01T13:21:14.064Z,28.45
2019-04-01T13:23:46.171Z,29.08
2019-04-01T13:26:18.111Z,28.86
2019-04-01T13:28:51.063Z,27.53
2019-04-01T13:31:23.930Z,27.57
2019-04-01T13:33:55.989Z,26.89
2019-04-01T13:36:27.925Z,26.92
2019-04-01T13:38:59.758Z,27.04
2019-04-01T13:41:41.769Z,26.34
2019-04-01T13:44:08.569Z,27.06
2019-04-01T13:46:38.118Z,27.15
2019-04-01T13:49:10.103Z,27.47
2019-04-01T13:51:43.763Z,26.75
2019-04-01T13:54:15.596Z,26.76
2019-04-01T13:56:47.260Z,25.83
2019-04-01T13:59:19.072Z,26.04
2019-04-01T14:01:50.753Z,25.40
2019-04-01T14:04:22.505Z,24.59
2019-04-01T14:06:54.618Z,24.65
2019-04-01T14:09:26.633Z,25.22
2019-04-01T14:11:58.372Z,25.98
2019-04-01T14:14:30.175Z,25.81
2019-04-01T14:17:02.174Z,26.03
2019-04-01T14:19:34.037Z,26.66
2019-04-01T14:22:05.632Z,26.61
2019-04-01T14:24:37.225Z,26.33
2019-04-01T14:27:09.324Z,25.60
2019-04-01T14:29:40.740Z,25.51
2019-04-01T14:32:12.390Z,25.25
2019-04-01T14:34:44.184Z,24.75
2019-04-01T14:37:25.045Z,25.79
2019-04-01T14:39:49.145Z,25.72
2019-04-01T14:42:20.834Z,24.76
2019-04-01T14:44:58.825Z,25.38
2019-04-01T14:47:30.549Z,24.93
2019-04-01T14:50:03.403Z,24.86
2019-04-01T14:52:35.788Z,23.86
2019-04-01T14:55:08.160Z,23.55
2019-04-01T14:57:40.101Z,23.43
2019-04-01T15:00:14.188Z,23.30
2019-04-01T15:02:46.064Z,23.26
2019-04-01T15:05:17.985Z,22.69
2019-04-01T15:07:49.644Z,22.42
2019-04-01T15:10:21.530Z,22.48
2019-04-01T15:13:04.418Z,21.66
2019-04-01T15:15:26.569Z,20.88
2019-04-01T15:17:58.315Z,20.58
2019-04-01T15:20:30.393Z,20.48
2019-04-01T15:23:02.210Z,20.18
2019-04-01T15:25:33.942Z,19.94
2019-04-01T15:28:05.783Z,19.69
2019-04-01T15:30:37.436Z,19.61
2019-04-01T15:33:09.395Z,19.35
2019-04-01T15:35:41.575Z,19.26
2019-04-01T15:38:13.540Z,19.17
2019-04-01T15:40:46.316Z,19.11
2019-04-01T15:43:18.779Z,19.02
2019-04-01T15:45:50.707Z,19.01
2019-04-01T15:48:22.404Z,18.77
2019-04-01T15:50:54.348Z,18.73
2019-04-01T15:53:26.286Z,18.72
2019-04-01T15:55:59.511Z,18.68
2019-04-01T15:58:31.367Z,18.66
2019-04-01T16:01:03.434Z,18.62
2019-04-01T16:03:35.150Z,18.46
2019-04-01T16:06:07.772Z,18.43
2019-04-01T16:08:39.679Z,18.26
2019-04-01T16:11:11.415Z,18.17
2019-04-01T16:13:43.485Z,18.05
2019-04-01T16:16:15.109Z,17.98
2019-04-01T16:18:46.709Z,17.92
2019-04-01T16:21:18.382Z,17.92
2019-04-01T16:23:50.276Z,17.74
2019-04-01T16:26:21.915Z,17.82
2019-04-01T16:28:53.674Z,17.64
2019-04-01T16:31:26.231Z,17.55
2019-04-01T16:33:58.378Z,17.49
2019-04-01T16:36:30.128Z,17.34
2019-04-01T16:39:01.888Z,17.30
2019-04-01T16:41:35.118Z,17.23
2019-04-01T16:44:06.897Z,17.18
2019-04-01T16:46:38.917Z,17.16
2019-04-01T16:49:10.472Z,17.01
2019-04-01T16:51:42.374Z,17.01
2019-04-01T16:54:14.144Z,16.97
2019-04-01T16:56:45.557Z,16.95
2019-04-01T16:59:17.295Z,16.85
2019-04-01T17:01:49.037Z,16.88
2019-04-01T17:04:20.921Z,16.82
2019-04-01T17:06:56.031Z,16.79
2019-04-01T17:09:27.684Z,16.72
2019-04-01T17:11:59.763Z,16.69
2019-04-01T17:14:31.452Z,16.62
2019-04-01T17:17:03.340Z,16.49
2019-04-01T17:19:34.875Z,16.37
2019-04-01T17:22:06.473Z,16.37
2019-04-01T17:24:38.178Z,16.24
2019-04-01T17:27:13.688Z,16.21
2019-04-01T17:29:47.051Z,16.12
2019-04-01T17:32:18.572Z,15.98
2019-04-01T17:34:50.319Z,15.96
2019-04-01T17:37:21.927Z,15.87
2019-04-01T17:39:53.621Z,15.83
2019-04-01T17:42:25.414Z,15.74
2019-04-01T17:44:59.375Z,15.72
2019-04-01T17:47:30.991Z,15.64
2019-04-01T17:50:02.884Z,15.52
2019-04-01T17:52:34.882Z,15.53
2019-04-01T17:55:06.740Z,15.48
2019-04-01T17:57:38.367Z,15.49
2019-04-01T18:00:14.593Z,15.54
2019-04-01T18:02:46.336Z,15.52
2019-04-01T18:05:18.423Z,15.59
2019-04-01T18:07:50.203Z,15.57
2019-04-01T18:10:22.244Z,15.61
2019-04-01T18:12:53.848Z,15.60
2019-04-01T18:15:25.483Z,15.59
2019-04-01T18:17:57.105Z,15.50
2019-04-01T18:20:28.742Z,15.43
2019-04-01T18:23:00.457Z,15.52
2019-04-01T18:25:32.378Z,15.46
2019-04-01T18:28:04.411Z,15.48
2019-04-01T18:30:35.865Z,15.47
2019-04-01T18:33:07.613Z,15.47
2019-04-01T18:35:39.193Z,15.39
2019-04-01T18:38:10.938Z,15.43
2019-04-01T18:40:42.889Z,15.39
2019-04-01T18:43:14.610Z,15.44
2019-04-01T18:45:46.380Z,15.34
2019-04-01T18:48:19.353Z,15.40
2019-04-01T18:50:51.614Z,15.30
2019-04-01T18:53:23.636Z,15.24
2019-04-01T18:55:55.359Z,15.05
2019-04-01T18:58:26.919Z,14.80
2019-04-01T19:00:59.865Z,14.56
2019-04-01T19:03:31.348Z,13.93
2019-04-01T19:06:03.165Z,13.87
2019-04-01T19:08:34.822Z,13.61
2019-04-01T19:11:06.654Z,13.63
2019-04-01T19:13:38.408Z,13.62
2019-04-01T19:16:12.106Z,13.65
2019-04-01T19:18:43.329Z,13.65
2019-04-01T19:21:14.694Z,13.64
2019-04-01T19:23:46.375Z,13.61
2019-04-01T19:26:18.126Z,13.68
2019-04-01T19:28:49.840Z,13.60
2019-04-01T19:31:21.391Z,13.60
2019-04-01T19:33:53.393Z,13.62
2019-04-01T19:36:24.806Z,13.19
2019-04-01T19:38:56.325Z,13.36
2019-04-01T19:41:30.127Z,13.40
2019-04-01T19:44:01.973Z,13.37
2019-04-01T19:46:34.003Z,13.25
2019-04-01T19:49:05.753Z,13.13
2019-04-01T19:51:38.706Z,13.21
2019-04-01T19:54:10.395Z,13.24
2019-04-01T19:56:44.842Z,13.08
2019-04-01T19:59:16.341Z,13.09
2019-04-01T20:01:48.253Z,12.97
2019-04-01T20:04:21.204Z,12.96
2019-04-01T20:06:52.943Z,12.90
2019-04-01T20:09:24.633Z,12.94
2019-04-01T20:11:58.440Z,12.92
2019-04-01T20:14:34.754Z,12.96
2019-04-01T20:17:09.970Z,12.95
2019-04-01T20:19:41.351Z,12.88
2019-04-01T20:22:13.122Z,12.65
2019-04-01T20:24:44.631Z,12.73
2019-04-01T20:27:16.238Z,12.57
2019-04-01T20:29:47.885Z,12.44
2019-04-01T20:32:20.113Z,12.43
2019-04-01T20:34:57.267Z,12.41
2019-04-01T20:37:24.314Z,12.24
2019-04-01T20:39:56.115Z,12.28
2019-04-01T20:42:28.044Z,12.16
2019-04-01T20:44:59.572Z,12.12
2019-04-01T20:47:31.385Z,12.04
2019-04-01T20:50:04.776Z,12.03
2019-04-01T20:52:35.533Z,11.90
2019-04-01T20:55:07.942Z,11.84
2019-04-01T20:57:39.602Z,11.77
2019-04-01T21:00:11.850Z,11.78
2019-04-01T21:02:43.730Z,11.72
2019-04-01T21:05:15.582Z,11.70
2019-04-01T21:07:47.576Z,11.58
2019-04-01T21:10:19.413Z,11.54
2019-04-01T21:12:50.892Z,11.39
2019-04-01T21:15:22.505Z,11.28
2019-04-01T21:17:54.128Z,11.16
2019-04-01T21:20:25.962Z,10.92
2019-04-01T21:22:57.778Z,10.65
2019-04-01T21:25:30.198Z,10.50
2019-04-01T21:28:01.994Z,10.37
2019-04-01T21:30:33.833Z,10.10
2019-04-01T21:33:05.534Z,9.86
2019-04-01T21:35:38.163Z,9.52
2019-04-01T21:38:10.244Z,9.36
2019-04-01T21:40:41.976Z,9.25
2019-04-01T21:43:13.561Z,9.08
2019-04-01T21:45:45.523Z,9.09
2019-04-01T21:48:17.217Z,9.16
2019-04-01T21:50:48.701Z,9.12
2019-04-01T21:53:20.286Z,9.14
2019-04-01T21:55:52.037Z,9.03
2019-04-01T21:58:23.623Z,9.09
2019-04-01T22:00:57.152Z,9.04
2019-04-01T22:03:30.208Z,9.06
2019-04-01T22:06:01.997Z,9.11
2019-04-01T22:08:33.624Z,9.04
2019-04-01T22:11:05.594Z,9.01
2019-04-01T22:13:37.588Z,8.83
2019-04-01T22:16:09.270Z,8.71
2019-04-01T22:18:40.596Z,8.57
2019-04-01T22:21:12.174Z,8.41
2019-04-01T22:23:43.786Z,8.39
2019-04-01T22:26:15.242Z,8.20
2019-04-01T22:28:46.679Z,8.09
2019-04-01T22:31:18.226Z,7.88
2019-04-01T22:33:49.976Z,7.65
2019-04-01T22:36:30.573Z,7.47
2019-04-01T22:38:54.959Z,7.39
2019-04-01T22:41:26.471Z,7.35
2019-04-01T22:43:57.940Z,7.36
2019-04-01T22:46:29.525Z,7.44
2019-04-01T22:49:01.080Z,7.43
2019-04-01T22:51:32.580Z,7.60
2019-04-01T22:54:04.102Z,7.67
2019-04-01T22:56:35.714Z,7.72
2019-04-01T22:59:07.557Z,7.54
2019-04-01T23:01:39.059Z,7.79
2019-04-01T23:04:10.654Z,7.85
2019-04-01T23:06:42.497Z,7.93
2019-04-01T23:09:14.011Z,7.97
2019-04-01T23:11:45.451Z,8.01
2019-04-01T23:14:17.304Z,7.94
2019-04-01T23:16:49.551Z,7.96
2019-04-01T23:19:20.946Z,7.91
2019-04-01T23:21:52.593Z,7.91
2019-04-01T23:24:24.188Z,7.79
2019-04-01T23:26:56.106Z,7.85
2019-04-01T23:29:28.974Z,7.79
2019-04-01T23:32:00.523Z,7.69
2019-04-01T23:34:32.112Z,7.75
2019-04-01T23:37:03.689Z,7.65
2019-04-01T23:39:35.221Z,7.72
2019-04-01T23:42:06.685Z,7.73
2019-04-01T23:44:38.202Z,7.73
2019-04-01T23:47:09.581Z,7.65
2019-04-01T23:49:41.240Z,7.68
2019-04-01T23:52:14.176Z,7.77
2019-04-01T23:54:45.716Z,7.67
2019-04-01T23:57:17.370Z,7.67
2019-04-01T23:59:49.078Z,7.69
